sensor_id;sensor_type;location;lat;lon;timestamp;temperature;humidity
16347;DHT22;8283;48.504;13.734;2024-01-07T00:00:04;8.90;91.90
16347;DHT22;8283;48.504;13.734;2024-01-07T00:02:24;8.90;91.80
16347;DHT22;8283;48.504;13.734;2024-01-07T00:04:43;8.90;91.90
16347;DHT22;8283;48.504;13.734;2024-01-07T00:07:03;8.90;91.90
16347;DHT22;8283;48.504;13.734;2024-01-07T00:09:23;8.90;91.90
16347;DHT22;8283;48.504;13.734;2024-01-07T00:11:42;8.90;91.90
16347;DHT22;8283;48.504;13.734;2024-01-07T00:14:01;8.90;91.80
16347;DHT22;8283;48.504;13.734;2024-01-07T00:16:20;8.90;91.80
16347;DHT22;8283;48.504;13.734;2024-01-07T00:18:40;8.90;91.70
16347;DHT22;8283;48.504;13.734;2024-01-07T00:20:59;8.90;91.70
16347;DHT22;8283;48.504;13.734;2024-01-07T00:23:19;8.90;91.70
16347;DHT22;8283;48.504;13.734;2024-01-07T00:25:39;8.90;92.00
16347;DHT22;8283;48.504;13.734;2024-01-07T00:27:58;8.90;91.80
16347;DHT22;8283;48.504;13.734;2024-01-07T00:30:18;9.60;91.90
16347;DHT22;8283;48.504;13.734;2024-01-07T00:32:39;8.90;91.60
16347;DHT22;8283;48.504;13.734;2024-01-07T00:34:58;8.90;91.60
16347;DHT22;8283;48.504;13.734;2024-01-07T00:37:17;8.80;91.60
16347;DHT22;8283;48.504;13.734;2024-01-07T00:39:37;8.80;91.70
16347;DHT22;8283;48.504;13.734;2024-01-07T00:41:56;8.80;91.70
16347;DHT22;8283;48.504;13.734;2024-01-07T00:44:15;8.80;91.70
16347;DHT22;8283;48.504;13.734;2024-01-07T00:46:35;8.80;91.80
16347;DHT22;8283;48.504;13.734;2024-01-07T00:48:54;9.10;91.80
16347;DHT22;8283;48.504;13.734;2024-01-07T00:51:13;8.80;91.70
16347;DHT22;8283;48.504;13.734;2024-01-07T00:53:32;8.80;91.80
16347;DHT22;8283;48.504;13.734;2024-01-07T00:55:52;8.80;91.80
16347;DHT22;8283;48.504;13.734;2024-01-07T00:58:11;8.80;91.90
16347;DHT22;8283;48.504;13.734;2024-01-07T01:00:31;8.80;91.90
16347;DHT22;8283;48.504;13.734;2024-01-07T01:02:50;8.80;91.80
16347;DHT22;8283;48.504;13.734;2024-01-07T01:05:09;8.80;92.00
16347;DHT22;8283;48.504;13.734;2024-01-07T01:07:29;8.80;92.10
16347;DHT22;8283;48.504;13.734;2024-01-07T01:09:48;8.80;91.70
16347;DHT22;8283;48.504;13.734;2024-01-07T01:12:08;8.80;91.70
16347;DHT22;8283;48.504;13.734;2024-01-07T01:14:27;8.80;91.70
16347;DHT22;8283;48.504;13.734;2024-01-07T01:16:46;8.80;91.70
16347;DHT22;8283;48.504;13.734;2024-01-07T01:19:06;8.80;91.70
16347;DHT22;8283;48.504;13.734;2024-01-07T01:21:25;8.80;91.70
16347;DHT22;8283;48.504;13.734;2024-01-07T01:23:45;8.80;91.70
16347;DHT22;8283;48.504;13.734;2024-01-07T01:26:05;8.80;91.70
16347;DHT22;8283;48.504;13.734;2024-01-07T01:28:24;8.80;91.70
16347;DHT22;8283;48.504;13.734;2024-01-07T01:30:43;8.80;91.70
16347;DHT22;8283;48.504;13.734;2024-01-07T01:33:03;8.80;91.60
16347;DHT22;8283;48.504;13.734;2024-01-07T01:35:22;8.80;91.60
16347;DHT22;8283;48.504;13.734;2024-01-07T01:37:42;8.80;91.60
16347;DHT22;8283;48.504;13.734;2024-01-07T01:40:03;8.80;91.60
16347;DHT22;8283;48.504;13.734;2024-01-07T01:42:23;9.00;91.70
16347;DHT22;8283;48.504;13.734;2024-01-07T01:44:42;8.70;91.60
16347;DHT22;8283;48.504;13.734;2024-01-07T01:47:01;8.70;91.50
16347;DHT22;8283;48.504;13.734;2024-01-07T01:49:21;8.70;91.60
16347;DHT22;8283;48.504;13.734;2024-01-07T01:51:41;8.70;91.60
16347;DHT22;8283;48.504;13.734;2024-01-07T01:54:01;8.70;91.60
16347;DHT22;8283;48.504;13.734;2024-01-07T01:56:22;8.60;91.60
16347;DHT22;8283;48.504;13.734;2024-01-07T01:58:42;8.60;91.70
16347;DHT22;8283;48.504;13.734;2024-01-07T02:01:03;8.60;91.60
16347;DHT22;8283;48.504;13.734;2024-01-07T02:03:22;8.60;91.60
16347;DHT22;8283;48.504;13.734;2024-01-07T02:05:41;8.60;91.50
16347;DHT22;8283;48.504;13.734;2024-01-07T02:08:01;8.60;91.50
16347;DHT22;8283;48.504;13.734;2024-01-07T02:10:22;8.60;91.80
16347;DHT22;8283;48.504;13.734;2024-01-07T02:12:41;8.60;91.50
16347;DHT22;8283;48.504;13.734;2024-01-07T02:15:01;8.50;91.50
16347;DHT22;8283;48.504;13.734;2024-01-07T02:17:20;8.50;91.50
16347;DHT22;8283;48.504;13.734;2024-01-07T02:19:40;8.50;91.60
16347;DHT22;8283;48.504;13.734;2024-01-07T02:22:00;8.50;91.60
16347;DHT22;8283;48.504;13.734;2024-01-07T02:24:20;8.50;91.70
16347;DHT22;8283;48.504;13.734;2024-01-07T02:26:39;8.50;91.70
16347;DHT22;8283;48.504;13.734;2024-01-07T02:28:59;8.50;91.70
16347;DHT22;8283;48.504;13.734;2024-01-07T02:31:18;8.50;91.60
16347;DHT22;8283;48.504;13.734;2024-01-07T02:33:38;8.50;91.60
16347;DHT22;8283;48.504;13.734;2024-01-07T02:35:57;8.50;91.60
16347;DHT22;8283;48.504;13.734;2024-01-07T02:38:17;8.50;91.70
16347;DHT22;8283;48.504;13.734;2024-01-07T02:40:36;8.50;91.70
16347;DHT22;8283;48.504;13.734;2024-01-07T02:42:55;8.50;91.70
16347;DHT22;8283;48.504;13.734;2024-01-07T02:45:15;8.50;91.60
16347;DHT22;8283;48.504;13.734;2024-01-07T02:47:35;8.50;91.60
16347;DHT22;8283;48.504;13.734;2024-01-07T02:49:54;8.50;91.60
16347;DHT22;8283;48.504;13.734;2024-01-07T02:52:13;8.50;91.60
16347;DHT22;8283;48.504;13.734;2024-01-07T02:54:32;8.50;91.60
16347;DHT22;8283;48.504;13.734;2024-01-07T02:56:52;8.50;91.60
16347;DHT22;8283;48.504;13.734;2024-01-07T02:59:11;8.50;91.60
16347;DHT22;8283;48.504;13.734;2024-01-07T03:01:31;8.50;91.60
16347;DHT22;8283;48.504;13.734;2024-01-07T03:03:50;8.40;91.40
16347;DHT22;8283;48.504;13.734;2024-01-07T03:06:10;8.20;91.30
16347;DHT22;8283;48.504;13.734;2024-01-07T03:08:29;8.40;91.30
16347;DHT22;8283;48.504;13.734;2024-01-07T03:10:48;8.40;91.40
16347;DHT22;8283;48.504;13.734;2024-01-07T03:13:07;8.30;91.30
16347;DHT22;8283;48.504;13.734;2024-01-07T03:15:26;8.30;91.30
16347;DHT22;8283;48.504;13.734;2024-01-07T03:17:46;8.30;91.20
16347;DHT22;8283;48.504;13.734;2024-01-07T03:20:05;8.20;91.10
16347;DHT22;8283;48.504;13.734;2024-01-07T03:22:25;8.20;91.50
16347;DHT22;8283;48.504;13.734;2024-01-07T03:24:44;8.20;91.10
16347;DHT22;8283;48.504;13.734;2024-01-07T03:27:04;8.10;91.10
16347;DHT22;8283;48.504;13.734;2024-01-07T03:29:23;8.10;91.20
16347;DHT22;8283;48.504;13.734;2024-01-07T03:31:43;8.10;91.20
16347;DHT22;8283;48.504;13.734;2024-01-07T03:34:02;8.00;91.20
16347;DHT22;8283;48.504;13.734;2024-01-07T03:36:22;8.00;91.30
16347;DHT22;8283;48.504;13.734;2024-01-07T03:38:41;8.00;91.30
16347;DHT22;8283;48.504;13.734;2024-01-07T03:41:00;8.00;91.30
16347;DHT22;8283;48.504;13.734;2024-01-07T03:43:20;8.00;91.30
16347;DHT22;8283;48.504;13.734;2024-01-07T03:45:39;8.00;91.30
16347;DHT22;8283;48.504;13.734;2024-01-07T03:47:58;8.00;91.30
16347;DHT22;8283;48.504;13.734;2024-01-07T03:50:18;8.00;91.30
16347;DHT22;8283;48.504;13.734;2024-01-07T03:52:37;8.00;91.30
16347;DHT22;8283;48.504;13.734;2024-01-07T03:54:57;8.00;91.30
16347;DHT22;8283;48.504;13.734;2024-01-07T03:57:16;8.00;91.30
16347;DHT22;8283;48.504;13.734;2024-01-07T03:59:35;8.00;91.30
16347;DHT22;8283;48.504;13.734;2024-01-07T04:01:56;8.00;91.20
16347;DHT22;8283;48.504;13.734;2024-01-07T04:04:15;8.00;91.00
16347;DHT22;8283;48.504;13.734;2024-01-07T04:06:35;8.00;91.00
16347;DHT22;8283;48.504;13.734;2024-01-07T04:08:54;7.90;90.90
16347;DHT22;8283;48.504;13.734;2024-01-07T04:11:14;7.90;91.00
16347;DHT22;8283;48.504;13.734;2024-01-07T04:13:33;7.90;91.00
16347;DHT22;8283;48.504;13.734;2024-01-07T04:15:52;7.90;90.90
16347;DHT22;8283;48.504;13.734;2024-01-07T04:18:12;7.90;90.80
16347;DHT22;8283;48.504;13.734;2024-01-07T04:20:31;7.90;90.90
16347;DHT22;8283;48.504;13.734;2024-01-07T04:22:51;7.90;90.90
16347;DHT22;8283;48.504;13.734;2024-01-07T04:25:10;7.80;90.90
16347;DHT22;8283;48.504;13.734;2024-01-07T04:27:30;7.80;90.90
16347;DHT22;8283;48.504;13.734;2024-01-07T04:29:49;7.80;90.90
16347;DHT22;8283;48.504;13.734;2024-01-07T04:32:08;7.80;90.90
16347;DHT22;8283;48.504;13.734;2024-01-07T04:34:28;7.80;90.90
16347;DHT22;8283;48.504;13.734;2024-01-07T04:36:47;7.80;90.90
16347;DHT22;8283;48.504;13.734;2024-01-07T04:39:06;7.80;90.90
16347;DHT22;8283;48.504;13.734;2024-01-07T04:41:26;7.80;90.90
16347;DHT22;8283;48.504;13.734;2024-01-07T04:43:45;7.80;90.80
16347;DHT22;8283;48.504;13.734;2024-01-07T04:46:05;7.80;90.80
16347;DHT22;8283;48.504;13.734;2024-01-07T04:48:25;7.80;90.70
16347;DHT22;8283;48.504;13.734;2024-01-07T04:50:44;7.80;90.60
16347;DHT22;8283;48.504;13.734;2024-01-07T04:53:04;7.80;90.50
16347;DHT22;8283;48.504;13.734;2024-01-07T04:55:23;7.70;90.50
16347;DHT22;8283;48.504;13.734;2024-01-07T04:57:42;7.70;90.50
16347;DHT22;8283;48.504;13.734;2024-01-07T05:00:02;7.60;90.60
16347;DHT22;8283;48.504;13.734;2024-01-07T05:02:23;7.60;90.60
16347;DHT22;8283;48.504;13.734;2024-01-07T05:04:43;7.60;90.60
16347;DHT22;8283;48.504;13.734;2024-01-07T05:07:03;7.60;90.70
16347;DHT22;8283;48.504;13.734;2024-01-07T05:09:23;7.50;90.70
16347;DHT22;8283;48.504;13.734;2024-01-07T05:11:42;7.50;90.60
16347;DHT22;8283;48.504;13.734;2024-01-07T05:14:02;7.50;90.70
16347;DHT22;8283;48.504;13.734;2024-01-07T05:16:21;7.50;90.70
16347;DHT22;8283;48.504;13.734;2024-01-07T05:18:40;7.50;90.70
16347;DHT22;8283;48.504;13.734;2024-01-07T05:20:59;7.50;90.70
16347;DHT22;8283;48.504;13.734;2024-01-07T05:23:19;7.50;90.70
16347;DHT22;8283;48.504;13.734;2024-01-07T05:25:38;7.50;90.60
16347;DHT22;8283;48.504;13.734;2024-01-07T05:27:57;7.50;90.60
16347;DHT22;8283;48.504;13.734;2024-01-07T05:30:17;7.50;90.60
16347;DHT22;8283;48.504;13.734;2024-01-07T05:32:36;7.40;90.50
16347;DHT22;8283;48.504;13.734;2024-01-07T05:34:55;7.40;90.60
16347;DHT22;8283;48.504;13.734;2024-01-07T05:37:15;7.40;90.60
16347;DHT22;8283;48.504;13.734;2024-01-07T05:39:34;7.40;90.60
16347;DHT22;8283;48.504;13.734;2024-01-07T05:41:53;7.30;90.70
16347;DHT22;8283;48.504;13.734;2024-01-07T05:44:12;7.30;90.70
16347;DHT22;8283;48.504;13.734;2024-01-07T05:46:32;7.30;90.70
16347;DHT22;8283;48.504;13.734;2024-01-07T05:48:51;7.30;90.80
16347;DHT22;8283;48.504;13.734;2024-01-07T05:51:11;7.30;90.70
16347;DHT22;8283;48.504;13.734;2024-01-07T05:53:30;7.30;90.80
16347;DHT22;8283;48.504;13.734;2024-01-07T05:55:49;7.30;90.70
16347;DHT22;8283;48.504;13.734;2024-01-07T05:58:09;6.40;90.50
16347;DHT22;8283;48.504;13.734;2024-01-07T06:00:28;7.30;90.80
16347;DHT22;8283;48.504;13.734;2024-01-07T06:02:48;7.30;90.80
16347;DHT22;8283;48.504;13.734;2024-01-07T06:05:07;7.30;90.80
16347;DHT22;8283;48.504;13.734;2024-01-07T06:07:26;7.30;90.70
16347;DHT22;8283;48.504;13.734;2024-01-07T06:09:46;7.30;90.70
16347;DHT22;8283;48.504;13.734;2024-01-07T06:12:05;7.30;90.70
16347;DHT22;8283;48.504;13.734;2024-01-07T06:14:24;7.30;90.70
16347;DHT22;8283;48.504;13.734;2024-01-07T06:16:43;7.20;90.70
16347;DHT22;8283;48.504;13.734;2024-01-07T06:19:03;7.20;90.80
16347;DHT22;8283;48.504;13.734;2024-01-07T06:21:22;7.20;90.80
16347;DHT22;8283;48.504;13.734;2024-01-07T06:23:41;7.20;90.80
16347;DHT22;8283;48.504;13.734;2024-01-07T06:26:03;7.20;90.80
16347;DHT22;8283;48.504;13.734;2024-01-07T06:28:22;7.20;90.70
16347;DHT22;8283;48.504;13.734;2024-01-07T06:30:42;6.80;90.60
16347;DHT22;8283;48.504;13.734;2024-01-07T06:33:01;7.20;90.70
16347;DHT22;8283;48.504;13.734;2024-01-07T06:35:21;7.20;90.70
16347;DHT22;8283;48.504;13.734;2024-01-07T06:37:40;7.20;90.60
16347;DHT22;8283;48.504;13.734;2024-01-07T06:40:00;7.10;90.60
16347;DHT22;8283;48.504;13.734;2024-01-07T06:42:19;7.10;90.60
16347;DHT22;8283;48.504;13.734;2024-01-07T06:44:38;7.10;90.60
16347;DHT22;8283;48.504;13.734;2024-01-07T06:46:58;7.00;90.50
16347;DHT22;8283;48.504;13.734;2024-01-07T06:49:17;7.00;90.50
16347;DHT22;8283;48.504;13.734;2024-01-07T06:51:37;7.00;90.60
16347;DHT22;8283;48.504;13.734;2024-01-07T06:53:57;6.90;90.60
16347;DHT22;8283;48.504;13.734;2024-01-07T06:56:16;6.90;90.70
16347;DHT22;8283;48.504;13.734;2024-01-07T06:58:36;6.90;90.70
16347;DHT22;8283;48.504;13.734;2024-01-07T07:00:55;6.90;90.80
16347;DHT22;8283;48.504;13.734;2024-01-07T07:03:15;6.90;90.80
16347;DHT22;8283;48.504;13.734;2024-01-07T07:05:34;6.90;90.80
16347;DHT22;8283;48.504;13.734;2024-01-07T07:07:53;6.90;90.80
16347;DHT22;8283;48.504;13.734;2024-01-07T07:10:12;6.90;90.90
16347;DHT22;8283;48.504;13.734;2024-01-07T07:12:32;6.90;90.90
16347;DHT22;8283;48.504;13.734;2024-01-07T07:14:51;6.90;90.90
16347;DHT22;8283;48.504;13.734;2024-01-07T07:17:11;6.90;90.90
16347;DHT22;8283;48.504;13.734;2024-01-07T07:19:30;6.90;90.90
16347;DHT22;8283;48.504;13.734;2024-01-07T07:21:49;6.90;90.90
16347;DHT22;8283;48.504;13.734;2024-01-07T07:24:09;7.00;90.80
16347;DHT22;8283;48.504;13.734;2024-01-07T07:26:28;8.20;91.10
16347;DHT22;8283;48.504;13.734;2024-01-07T07:28:48;6.90;90.80
16347;DHT22;8283;48.504;13.734;2024-01-07T07:31:08;6.90;90.80
16347;DHT22;8283;48.504;13.734;2024-01-07T07:33:27;6.90;90.70
16347;DHT22;8283;48.504;13.734;2024-01-07T07:35:46;6.90;90.70
16347;DHT22;8283;48.504;13.734;2024-01-07T07:38:06;6.90;90.70
16347;DHT22;8283;48.504;13.734;2024-01-07T07:40:25;6.90;90.70
16347;DHT22;8283;48.504;13.734;2024-01-07T07:42:45;6.80;90.50
16347;DHT22;8283;48.504;13.734;2024-01-07T07:45:05;6.80;90.50
16347;DHT22;8283;48.504;13.734;2024-01-07T07:47:24;6.80;90.50
16347;DHT22;8283;48.504;13.734;2024-01-07T07:49:43;6.70;90.50
16347;DHT22;8283;48.504;13.734;2024-01-07T07:52:03;6.70;90.50
16347;DHT22;8283;48.504;13.734;2024-01-07T07:54:22;6.70;90.60
16347;DHT22;8283;48.504;13.734;2024-01-07T07:56:42;6.70;90.70
16347;DHT22;8283;48.504;13.734;2024-01-07T07:59:04;6.70;90.70
16347;DHT22;8283;48.504;13.734;2024-01-07T08:01:23;6.70;90.70
16347;DHT22;8283;48.504;13.734;2024-01-07T08:03:43;6.70;90.80
16347;DHT22;8283;48.504;13.734;2024-01-07T08:06:03;6.80;90.80
16347;DHT22;8283;48.504;13.734;2024-01-07T08:08:22;6.80;90.60
16347;DHT22;8283;48.504;13.734;2024-01-07T08:10:42;6.80;90.80
16347;DHT22;8283;48.504;13.734;2024-01-07T08:13:01;6.80;90.60
16347;DHT22;8283;48.504;13.734;2024-01-07T08:15:21;6.80;90.50
16347;DHT22;8283;48.504;13.734;2024-01-07T08:17:40;6.80;90.60
16347;DHT22;8283;48.504;13.734;2024-01-07T08:20:00;6.80;90.70
16347;DHT22;8283;48.504;13.734;2024-01-07T08:22:20;6.80;90.80
16347;DHT22;8283;48.504;13.734;2024-01-07T08:24:39;6.80;90.80
16347;DHT22;8283;48.504;13.734;2024-01-07T08:26:59;5.90;90.50
16347;DHT22;8283;48.504;13.734;2024-01-07T08:29:18;6.80;90.70
16347;DHT22;8283;48.504;13.734;2024-01-07T08:31:39;6.80;90.70
16347;DHT22;8283;48.504;13.734;2024-01-07T08:33:58;6.90;90.70
16347;DHT22;8283;48.504;13.734;2024-01-07T08:36:18;6.90;90.70
16347;DHT22;8283;48.504;13.734;2024-01-07T08:38:37;6.80;90.60
16347;DHT22;8283;48.504;13.734;2024-01-07T08:40:56;6.90;90.70
16347;DHT22;8283;48.504;13.734;2024-01-07T08:43:16;6.90;90.70
16347;DHT22;8283;48.504;13.734;2024-01-07T08:45:36;6.90;90.70
16347;DHT22;8283;48.504;13.734;2024-01-07T08:47:56;6.90;90.70
16347;DHT22;8283;48.504;13.734;2024-01-07T08:50:15;6.90;90.70
16347;DHT22;8283;48.504;13.734;2024-01-07T08:52:35;7.20;90.80
16347;DHT22;8283;48.504;13.734;2024-01-07T08:54:54;7.00;90.70
16347;DHT22;8283;48.504;13.734;2024-01-07T08:57:14;7.00;90.60
16347;DHT22;8283;48.504;13.734;2024-01-07T08:59:33;7.00;90.60
16347;DHT22;8283;48.504;13.734;2024-01-07T09:01:52;7.00;90.60
16347;DHT22;8283;48.504;13.734;2024-01-07T09:04:12;7.00;90.50
16347;DHT22;8283;48.504;13.734;2024-01-07T09:06:31;7.00;90.40
16347;DHT22;8283;48.504;13.734;2024-01-07T09:08:51;7.00;90.30
16347;DHT22;8283;48.504;13.734;2024-01-07T09:11:10;6.90;90.20
16347;DHT22;8283;48.504;13.734;2024-01-07T09:13:31;6.90;90.20
16347;DHT22;8283;48.504;13.734;2024-01-07T09:15:51;6.80;90.20
16347;DHT22;8283;48.504;13.734;2024-01-07T09:18:10;6.80;90.20
16347;DHT22;8283;48.504;13.734;2024-01-07T09:20:30;6.80;90.30
16347;DHT22;8283;48.504;13.734;2024-01-07T09:22:50;6.80;90.40
16347;DHT22;8283;48.504;13.734;2024-01-07T09:25:09;6.80;90.30
16347;DHT22;8283;48.504;13.734;2024-01-07T09:27:29;6.80;90.20
16347;DHT22;8283;48.504;13.734;2024-01-07T09:29:49;6.70;90.00
16347;DHT22;8283;48.504;13.734;2024-01-07T09:32:09;6.60;89.50
16347;DHT22;8283;48.504;13.734;2024-01-07T09:34:29;6.60;89.30
16347;DHT22;8283;48.504;13.734;2024-01-07T09:36:48;6.50;89.30
16347;DHT22;8283;48.504;13.734;2024-01-07T09:39:07;6.40;89.00
16347;DHT22;8283;48.504;13.734;2024-01-07T09:41:28;6.30;89.10
16347;DHT22;8283;48.504;13.734;2024-01-07T09:43:48;6.30;89.40
16347;DHT22;8283;48.504;13.734;2024-01-07T09:46:07;6.20;89.50
16347;DHT22;8283;48.504;13.734;2024-01-07T09:48:26;6.20;89.70
16347;DHT22;8283;48.504;13.734;2024-01-07T09:50:46;6.20;89.80
16347;DHT22;8283;48.504;13.734;2024-01-07T09:53:07;6.20;90.20
16347;DHT22;8283;48.504;13.734;2024-01-07T09:56:16;6.20;90.00
16347;DHT22;8283;48.504;13.734;2024-01-07T09:58:07;6.20;89.80
16347;DHT22;8283;48.504;13.734;2024-01-07T10:00:27;6.20;90.00
16347;DHT22;8283;48.504;13.734;2024-01-07T10:02:48;6.20;89.90
16347;DHT22;8283;48.504;13.734;2024-01-07T10:05:07;6.30;89.80
16347;DHT22;8283;48.504;13.734;2024-01-07T10:07:27;6.30;89.80
16347;DHT22;8283;48.504;13.734;2024-01-07T10:09:46;6.20;89.70
16347;DHT22;8283;48.504;13.734;2024-01-07T10:12:06;6.20;89.60
16347;DHT22;8283;48.504;13.734;2024-01-07T10:14:26;6.20;89.30
16347;DHT22;8283;48.504;13.734;2024-01-07T10:16:45;6.20;89.00
16347;DHT22;8283;48.504;13.734;2024-01-07T10:19:05;6.20;88.90
16347;DHT22;8283;48.504;13.734;2024-01-07T10:21:24;6.20;88.80
16347;DHT22;8283;48.504;13.734;2024-01-07T10:23:43;6.10;88.80
16347;DHT22;8283;48.504;13.734;2024-01-07T10:26:03;6.10;88.80
16347;DHT22;8283;48.504;13.734;2024-01-07T10:28:23;6.10;88.70
16347;DHT22;8283;48.504;13.734;2024-01-07T10:30:48;6.10;88.60
16347;DHT22;8283;48.504;13.734;2024-01-07T10:33:08;6.00;88.00
16347;DHT22;8283;48.504;13.734;2024-01-07T10:35:33;6.00;88.20
16347;DHT22;8283;48.504;13.734;2024-01-07T10:37:53;5.90;87.90
16347;DHT22;8283;48.504;13.734;2024-01-07T10:40:13;5.90;88.40
16347;DHT22;8283;48.504;13.734;2024-01-07T10:42:33;5.90;88.30
16347;DHT22;8283;48.504;13.734;2024-01-07T10:44:53;5.90;88.30
16347;DHT22;8283;48.504;13.734;2024-01-07T10:47:13;5.80;88.20
16347;DHT22;8283;48.504;13.734;2024-01-07T10:49:35;5.80;88.20
16347;DHT22;8283;48.504;13.734;2024-01-07T10:52:08;5.80;88.50
16347;DHT22;8283;48.504;13.734;2024-01-07T10:54:29;5.90;88.40
16347;DHT22;8283;48.504;13.734;2024-01-07T10:56:50;5.90;88.90
16347;DHT22;8283;48.504;13.734;2024-01-07T10:59:13;5.90;89.10
16347;DHT22;8283;48.504;13.734;2024-01-07T11:01:33;6.00;89.30
16347;DHT22;8283;48.504;13.734;2024-01-07T11:03:59;4.70;88.10
16347;DHT22;8283;48.504;13.734;2024-01-07T11:11:56;6.20;87.90
16347;DHT22;8283;48.504;13.734;2024-01-07T11:14:41;6.20;88.80
16347;DHT22;8283;48.504;13.734;2024-01-07T11:17:04;6.30;88.00
16347;DHT22;8283;48.504;13.734;2024-01-07T11:19:23;6.30;89.10
16347;DHT22;8283;48.504;13.734;2024-01-07T11:21:43;6.40;89.00
16347;DHT22;8283;48.504;13.734;2024-01-07T11:24:03;6.40;88.90
16347;DHT22;8283;48.504;13.734;2024-01-07T11:26:23;7.20;89.50
16347;DHT22;8283;48.504;13.734;2024-01-07T11:28:52;6.50;89.10
16347;DHT22;8283;48.504;13.734;2024-01-07T11:31:17;6.60;89.10
16347;DHT22;8283;48.504;13.734;2024-01-07T11:33:37;6.60;87.80
16347;DHT22;8283;48.504;13.734;2024-01-07T11:35:57;6.60;87.90
16347;DHT22;8283;48.504;13.734;2024-01-07T11:38:18;6.70;87.80
16347;DHT22;8283;48.504;13.734;2024-01-07T11:40:37;6.70;87.70
16347;DHT22;8283;48.504;13.734;2024-01-07T11:42:56;6.70;87.70
16347;DHT22;8283;48.504;13.734;2024-01-07T11:45:16;6.70;87.80
16347;DHT22;8283;48.504;13.734;2024-01-07T11:47:36;6.70;87.80
16347;DHT22;8283;48.504;13.734;2024-01-07T11:49:55;6.70;87.80
16347;DHT22;8283;48.504;13.734;2024-01-07T11:52:14;6.70;87.80
16347;DHT22;8283;48.504;13.734;2024-01-07T11:54:34;6.80;87.70
16347;DHT22;8283;48.504;13.734;2024-01-07T11:56:54;6.80;87.60
16347;DHT22;8283;48.504;13.734;2024-01-07T11:59:13;6.80;87.60
16347;DHT22;8283;48.504;13.734;2024-01-07T12:01:33;6.80;87.70
16347;DHT22;8283;48.504;13.734;2024-01-07T12:03:52;6.90;87.60
16347;DHT22;8283;48.504;13.734;2024-01-07T12:06:12;6.90;87.50
16347;DHT22;8283;48.504;13.734;2024-01-07T12:08:34;6.90;87.30
16347;DHT22;8283;48.504;13.734;2024-01-07T12:10:54;6.90;87.10
16347;DHT22;8283;48.504;13.734;2024-01-07T12:13:14;6.90;87.00
16347;DHT22;8283;48.504;13.734;2024-01-07T12:15:33;6.90;87.00
16347;DHT22;8283;48.504;13.734;2024-01-07T12:17:57;6.90;87.10
16347;DHT22;8283;48.504;13.734;2024-01-07T12:20:17;7.00;86.90
16347;DHT22;8283;48.504;13.734;2024-01-07T12:22:39;7.00;87.30
16347;DHT22;8283;48.504;13.734;2024-01-07T12:25:07;7.00;86.90
16347;DHT22;8283;48.504;13.734;2024-01-07T12:27:27;7.00;86.10
16347;DHT22;8283;48.504;13.734;2024-01-07T12:29:57;6.00;86.30
16347;DHT22;8283;48.504;13.734;2024-01-07T12:32:17;7.00;86.20
16347;DHT22;8283;48.504;13.734;2024-01-07T12:34:36;7.00;87.30
16347;DHT22;8283;48.504;13.734;2024-01-07T12:36:56;7.00;86.30
16347;DHT22;8283;48.504;13.734;2024-01-07T12:39:15;7.00;86.20
16347;DHT22;8283;48.504;13.734;2024-01-07T12:41:34;6.90;85.70
16347;DHT22;8283;48.504;13.734;2024-01-07T12:43:53;6.80;85.60
16347;DHT22;8283;48.504;13.734;2024-01-07T12:46:13;6.70;85.60
16347;DHT22;8283;48.504;13.734;2024-01-07T12:48:32;6.70;85.60
16347;DHT22;8283;48.504;13.734;2024-01-07T12:50:52;6.70;85.70
16347;DHT22;8283;48.504;13.734;2024-01-07T12:53:12;6.60;85.80
16347;DHT22;8283;48.504;13.734;2024-01-07T12:55:32;6.60;85.80
16347;DHT22;8283;48.504;13.734;2024-01-07T12:57:51;6.60;85.90
16347;DHT22;8283;48.504;13.734;2024-01-07T13:00:11;6.60;85.90
16347;DHT22;8283;48.504;13.734;2024-01-07T13:02:31;6.60;85.70
16347;DHT22;8283;48.504;13.734;2024-01-07T13:04:51;6.60;86.10
16347;DHT22;8283;48.504;13.734;2024-01-07T13:07:11;6.60;86.00
16347;DHT22;8283;48.504;13.734;2024-01-07T13:09:30;6.60;86.10
16347;DHT22;8283;48.504;13.734;2024-01-07T13:11:50;6.60;86.10
16347;DHT22;8283;48.504;13.734;2024-01-07T13:14:10;6.60;86.10
16347;DHT22;8283;48.504;13.734;2024-01-07T13:16:30;6.60;86.00
16347;DHT22;8283;48.504;13.734;2024-01-07T13:18:49;6.60;86.10
16347;DHT22;8283;48.504;13.734;2024-01-07T13:21:08;6.60;86.20
16347;DHT22;8283;48.504;13.734;2024-01-07T13:23:27;6.60;86.20
16347;DHT22;8283;48.504;13.734;2024-01-07T13:25:47;6.60;86.10
16347;DHT22;8283;48.504;13.734;2024-01-07T13:28:07;6.50;86.10
16347;DHT22;8283;48.504;13.734;2024-01-07T13:30:29;6.50;86.30
16347;DHT22;8283;48.504;13.734;2024-01-07T13:32:48;6.50;86.10
16347;DHT22;8283;48.504;13.734;2024-01-07T13:35:08;6.50;86.10
16347;DHT22;8283;48.504;13.734;2024-01-07T13:37:29;6.50;86.00
16347;DHT22;8283;48.504;13.734;2024-01-07T13:39:50;6.50;86.60
16347;DHT22;8283;48.504;13.734;2024-01-07T13:42:09;6.40;86.10
16347;DHT22;8283;48.504;13.734;2024-01-07T13:44:29;5.70;85.70
16347;DHT22;8283;48.504;13.734;2024-01-07T13:46:49;6.40;86.20
16347;DHT22;8283;48.504;13.734;2024-01-07T13:49:11;6.40;86.20
16347;DHT22;8283;48.504;13.734;2024-01-07T13:51:31;6.40;86.10
16347;DHT22;8283;48.504;13.734;2024-01-07T13:53:50;6.40;86.10
16347;DHT22;8283;48.504;13.734;2024-01-07T13:56:10;6.40;86.00
16347;DHT22;8283;48.504;13.734;2024-01-07T13:58:29;6.40;85.80
16347;DHT22;8283;48.504;13.734;2024-01-07T14:00:48;6.40;85.80
16347;DHT22;8283;48.504;13.734;2024-01-07T14:03:08;6.30;85.80
16347;DHT22;8283;48.504;13.734;2024-01-07T14:05:27;6.30;85.70
16347;DHT22;8283;48.504;13.734;2024-01-07T14:07:47;6.30;85.70
16347;DHT22;8283;48.504;13.734;2024-01-07T14:10:07;6.30;85.80
16347;DHT22;8283;48.504;13.734;2024-01-07T14:12:27;6.30;85.90
16347;DHT22;8283;48.504;13.734;2024-01-07T14:14:47;6.30;85.90
16347;DHT22;8283;48.504;13.734;2024-01-07T14:17:07;6.20;85.70
16347;DHT22;8283;48.504;13.734;2024-01-07T14:19:26;6.30;85.60
16347;DHT22;8283;48.504;13.734;2024-01-07T14:21:46;6.20;85.50
16347;DHT22;8283;48.504;13.734;2024-01-07T14:24:05;6.40;85.60
16347;DHT22;8283;48.504;13.734;2024-01-07T14:26:25;6.20;85.60
16347;DHT22;8283;48.504;13.734;2024-01-07T14:28:44;6.20;85.70
16347;DHT22;8283;48.504;13.734;2024-01-07T14:31:04;6.20;85.80
16347;DHT22;8283;48.504;13.734;2024-01-07T14:33:23;6.30;85.90
16347;DHT22;8283;48.504;13.734;2024-01-07T14:35:43;6.30;85.80
16347;DHT22;8283;48.504;13.734;2024-01-07T14:38:02;6.30;85.60
16347;DHT22;8283;48.504;13.734;2024-01-07T14:40:23;6.30;85.30
16347;DHT22;8283;48.504;13.734;2024-01-07T14:42:42;6.20;85.10
16347;DHT22;8283;48.504;13.734;2024-01-07T14:45:02;6.20;85.00
16347;DHT22;8283;48.504;13.734;2024-01-07T14:47:23;6.20;84.70
16347;DHT22;8283;48.504;13.734;2024-01-07T14:49:43;6.20;83.50
16347;DHT22;8283;48.504;13.734;2024-01-07T14:52:03;6.10;84.60
16347;DHT22;8283;48.504;13.734;2024-01-07T14:54:22;6.00;84.60
16347;DHT22;8283;48.504;13.734;2024-01-07T14:56:42;6.00;84.70
16347;DHT22;8283;48.504;13.734;2024-01-07T14:59:02;6.00;84.50
16347;DHT22;8283;48.504;13.734;2024-01-07T15:01:21;5.90;84.50